createdAt,value
2024-03-03T00:04:43.699Z,12.97
2024-03-03T00:14:52.411Z,14.33
2024-03-03T00:25:01.218Z,10.28
2024-03-03T00:35:10.119Z,10.48
2024-03-03T00:45:18.765Z,10
2024-03-03T00:55:27.537Z,11.73
2024-03-03T01:05:36.315Z,8.93
2024-03-03T01:15:45.094Z,8.37
2024-03-03T01:25:53.810Z,6.61
2024-03-03T01:36:02.474Z,2.27
2024-03-03T01:46:12.005Z,1.63
2024-03-03T01:56:20.746Z,0.82
2024-03-03T02:06:29.503Z,1.27
2024-03-03T02:16:38.241Z,0.84
2024-03-03T02:26:46.979Z,1.47
2024-03-03T02:36:55.675Z,1.43
2024-03-03T02:47:04.345Z,1.28
2024-03-03T02:57:13.069Z,1.12
2024-03-03T03:07:22.020Z,1.27
2024-03-03T03:17:30.750Z,1.76
2024-03-03T03:27:39.603Z,0.71
2024-03-03T03:37:48.360Z,0.68
2024-03-03T03:47:57.163Z,0.41
2024-03-03T03:58:05.845Z,0.99
2024-03-03T04:08:14.393Z,1.72
2024-03-03T04:18:24.905Z,0.67
2024-03-03T04:28:30.454Z,0.67
2024-03-03T04:38:39.209Z,0.64
2024-03-03T04:48:47.966Z,1.16
2024-03-03T04:58:56.986Z,1.31
2024-03-03T05:09:05.761Z,1.14
2024-03-03T05:19:14.597Z,1.27
2024-03-03T05:29:23.337Z,0.65
2024-03-03T05:39:31.941Z,1.53
2024-03-03T05:49:40.689Z,1.04
2024-03-03T05:59:49.451Z,1.08
2024-03-03T06:09:58.224Z,0.92
2024-03-03T06:20:07.087Z,0.72
2024-03-03T06:30:15.876Z,0.64
2024-03-03T06:40:24.615Z,1.64
2024-03-03T06:50:33.329Z,0.24
2024-03-03T07:00:43.304Z,0.96
2024-03-03T07:10:51.989Z,1.25
2024-03-03T07:21:00.694Z,2.3
2024-03-03T07:31:09.551Z,0.34
2024-03-03T07:41:18.337Z,1
2024-03-03T07:51:27.017Z,1.31
2024-03-03T08:01:35.940Z,1.16
2024-03-03T08:11:44.612Z,1.78
2024-03-03T08:21:53.444Z,3.03
2024-03-03T08:32:04.333Z,4.02
2024-03-03T08:42:10.126Z,2.85
2024-03-03T08:52:19.008Z,1.99
2024-03-03T09:02:27.800Z,4.53
2024-03-03T09:12:36.510Z,2.02
2024-03-03T09:22:44.904Z,1.7
2024-03-03T09:32:54.194Z,4.67
2024-03-03T09:43:03.133Z,5.73
2024-03-03T09:53:12.012Z,5.35
2024-03-03T10:03:20.802Z,4.31
2024-03-03T10:13:29.755Z,4.68
2024-03-03T10:23:38.618Z,2.84
2024-03-03T10:33:47.522Z,3.05
2024-03-03T10:43:56.221Z,4.33
2024-03-03T10:54:05.577Z,3.99
2024-03-03T11:04:14.360Z,3.54
2024-03-03T11:14:23.098Z,3.32
2024-03-03T11:24:32.010Z,2.51
2024-03-03T11:34:40.881Z,2.64
2024-03-03T11:44:49.733Z,4.25
2024-03-03T11:54:59.740Z,2.4
2024-03-03T12:05:08.636Z,3.7
2024-03-03T12:15:18.990Z,2.42
2024-03-03T12:25:17.711Z,4.51
2024-03-03T12:35:26.552Z,4.67
2024-03-03T12:45:35.328Z,3.32
2024-03-03T12:55:44.301Z,4.52
2024-03-03T13:05:53.113Z,3.82
2024-03-03T13:16:01.560Z,5.74
2024-03-03T13:26:10.519Z,3.87
2024-03-03T13:36:20.059Z,3
2024-03-03T13:46:19.790Z,9.85
2024-03-03T13:56:28.487Z,3.18
2024-03-03T14:06:38.489Z,3.43
2024-03-03T14:16:47.306Z,3.37
2024-03-03T14:26:56.197Z,2.92
2024-03-03T14:37:05.196Z,3.05
2024-03-03T14:47:15.527Z,3.26
2024-03-03T14:57:21.604Z,2.15
2024-03-03T15:07:30.421Z,2.78
2024-03-03T15:17:39.170Z,1.52
2024-03-03T15:27:48.063Z,1.54
2024-03-03T15:37:57.025Z,1.8
2024-03-03T15:48:06.021Z,1.47
2024-03-03T15:58:15.738Z,1.7
2024-03-03T16:08:23.916Z,1.07
2024-03-03T16:18:32.648Z,2.21
2024-03-03T16:28:41.369Z,2.27
2024-03-03T16:38:52.744Z,1.5
2024-03-03T16:48:59.437Z,1.99
2024-03-03T16:59:08.076Z,2.17
2024-03-03T17:09:16.779Z,2.3
2024-03-03T17:19:25.486Z,1.64
2024-03-03T17:29:34.777Z,2.54
2024-03-03T17:39:43.573Z,2.18
2024-03-03T17:49:52.432Z,1.94
2024-03-03T18:00:01.252Z,1.59
2024-03-03T18:10:09.901Z,3.07
2024-03-03T18:20:18.735Z,2.83
2024-03-03T18:30:27.576Z,3.33
2024-03-03T18:40:36.418Z,3.76
2024-03-03T18:50:46.499Z,4.08
2024-03-03T19:00:58.786Z,3.59
2024-03-03T19:10:59.021Z,2.21
2024-03-03T19:21:10.420Z,2.53
2024-03-03T19:31:10.652Z,3.06
2024-03-03T19:41:19.923Z,5.08
2024-03-03T19:51:29.283Z,5.67
2024-03-03T20:01:40.078Z,6.12
2024-03-03T20:11:39.418Z,3.79
2024-03-03T20:21:48.163Z,3.49
2024-03-03T20:31:57.354Z,4.2
2024-03-03T20:42:06.365Z,4.34
2024-03-03T20:52:16.419Z,2.32
2024-03-03T21:02:21.530Z,1.53
2024-03-03T21:12:20.940Z,3.3
2024-03-03T21:22:30.299Z,2.9
2024-03-03T21:32:39.489Z,2.31
2024-03-03T21:42:48.729Z,2.46
2024-03-03T21:52:57.849Z,2.58
2024-03-03T22:03:06.804Z,2.39
2024-03-03T22:13:15.896Z,2.31
2024-03-03T22:23:25.557Z,1.41
2024-03-03T22:33:34.441Z,1.85
2024-03-03T22:43:43.721Z,2.21
2024-03-03T22:53:53.096Z,1.85
2024-03-03T23:04:01.975Z,1.03
2024-03-03T23:14:11.175Z,3.54
2024-03-03T23:24:20.147Z,1.01
2024-03-03T23:34:29.101Z,1.76
2024-03-03T23:44:38.105Z,1.27
2024-03-03T23:54:46.994Z,1.75
